sensor_id;sensor_type;location;lat;lon;timestamp;P1;durP1;ratioP1;P2;durP2;ratioP2
3647;SDS011;1840;48.892;15.312;2022-09-20T00:01:15;2.80;;;1.90;;
3647;SDS011;1840;48.892;15.312;2022-09-20T00:03:47;4.20;;;2.23;;
3647;SDS011;1840;48.892;15.312;2022-09-20T00:06:17;2.30;;;1.90;;
3647;SDS011;1840;48.892;15.312;2022-09-20T00:08:46;3.30;;;2.30;;
3647;SDS011;1840;48.892;15.312;2022-09-20T00:11:18;2.80;;;1.93;;
3647;SDS011;1840;48.892;15.312;2022-09-20T00:13:48;4.30;;;2.40;;
3647;SDS011;1840;48.892;15.312;2022-09-20T00:16:19;2.87;;;1.97;;
3647;SDS011;1840;48.892;15.312;2022-09-20T00:18:48;3.30;;;2.07;;
3647;SDS011;1840;48.892;15.312;2022-09-20T00:21:18;2.63;;;1.80;;
3647;SDS011;1840;48.892;15.312;2022-09-20T00:23:48;5.27;;;2.10;;
3647;SDS011;1840;48.892;15.312;2022-09-20T00:26:17;3.77;;;1.73;;
3647;SDS011;1840;48.892;15.312;2022-09-20T00:28:47;3.47;;;2.20;;
3647;SDS011;1840;48.892;15.312;2022-09-20T00:31:16;2.83;;;1.77;;
3647;SDS011;1840;48.892;15.312;2022-09-20T00:33:44;3.10;;;2.20;;
3647;SDS011;1840;48.892;15.312;2022-09-20T00:36:30;3.83;;;1.70;;
3647;SDS011;1840;48.892;15.312;2022-09-20T00:38:59;3.00;;;2.10;;
3647;SDS011;1840;48.892;15.312;2022-09-20T00:41:30;5.50;;;2.03;;
3647;SDS011;1840;48.892;15.312;2022-09-20T00:43:59;3.10;;;1.90;;
3647;SDS011;1840;48.892;15.312;2022-09-20T00:46:32;4.40;;;2.03;;
3647;SDS011;1840;48.892;15.312;2022-09-20T00:49:05;3.30;;;2.07;;
3647;SDS011;1840;48.892;15.312;2022-09-20T00:51:40;2.97;;;1.80;;
3647;SDS011;1840;48.892;15.312;2022-09-20T00:54:12;2.77;;;2.13;;
3647;SDS011;1840;48.892;15.312;2022-09-20T00:56:47;5.10;;;4.60;;
3647;SDS011;1840;48.892;15.312;2022-09-20T00:59:16;4.80;;;2.90;;
3647;SDS011;1840;48.892;15.312;2022-09-20T01:01:47;5.00;;;3.17;;
3647;SDS011;1840;48.892;15.312;2022-09-20T01:04:18;4.47;;;2.10;;
3647;SDS011;1840;48.892;15.312;2022-09-20T01:06:52;4.93;;;2.00;;
3647;SDS011;1840;48.892;15.312;2022-09-20T01:09:22;6.43;;;2.20;;
3647;SDS011;1840;48.892;15.312;2022-09-20T01:11:52;3.63;;;2.13;;
3647;SDS011;1840;48.892;15.312;2022-09-20T01:14:22;7.97;;;2.77;;
3647;SDS011;1840;48.892;15.312;2022-09-20T01:16:52;3.60;;;2.47;;
3647;SDS011;1840;48.892;15.312;2022-09-20T01:19:25;4.40;;;2.30;;
3647;SDS011;1840;48.892;15.312;2022-09-20T01:22:01;6.00;;;2.20;;
3647;SDS011;1840;48.892;15.312;2022-09-20T01:24:37;4.00;;;2.07;;
3647;SDS011;1840;48.892;15.312;2022-09-20T01:27:15;3.50;;;2.20;;
3647;SDS011;1840;48.892;15.312;2022-09-20T01:29:54;3.37;;;1.83;;
3647;SDS011;1840;48.892;15.312;2022-09-20T01:32:32;3.03;;;2.20;;
3647;SDS011;1840;48.892;15.312;2022-09-20T01:35:08;2.67;;;2.10;;
3647;SDS011;1840;48.892;15.312;2022-09-20T01:37:40;2.50;;;1.60;;
3647;SDS011;1840;48.892;15.312;2022-09-20T01:40:17;2.43;;;1.87;;
3647;SDS011;1840;48.892;15.312;2022-09-20T01:43:01;10.53;;;2.33;;
3647;SDS011;1840;48.892;15.312;2022-09-20T01:45:39;3.27;;;1.90;;
3647;SDS011;1840;48.892;15.312;2022-09-20T01:48:12;3.50;;;2.37;;
3647;SDS011;1840;48.892;15.312;2022-09-20T01:50:55;4.40;;;2.10;;
3647;SDS011;1840;48.892;15.312;2022-09-20T01:54:09;2.70;;;1.63;;
3647;SDS011;1840;48.892;15.312;2022-09-20T01:57:06;3.50;;;2.07;;
3647;SDS011;1840;48.892;15.312;2022-09-20T02:00:09;4.90;;;1.70;;
3647;SDS011;1840;48.892;15.312;2022-09-20T02:02:53;3.80;;;2.10;;
3647;SDS011;1840;48.892;15.312;2022-09-20T02:08:35;2.90;;;1.90;;
3647;SDS011;1840;48.892;15.312;2022-09-20T02:11:28;4.97;;;2.10;;
3647;SDS011;1840;48.892;15.312;2022-09-20T02:14:18;3.27;;;1.93;;
3647;SDS011;1840;48.892;15.312;2022-09-20T02:16:57;4.53;;;2.00;;
3647;SDS011;1840;48.892;15.312;2022-09-20T02:22:37;3.47;;;1.43;;
3647;SDS011;1840;48.892;15.312;2022-09-20T02:28:22;3.13;;;1.43;;
3647;SDS011;1840;48.892;15.312;2022-09-20T02:31:01;2.13;;;1.37;;
3647;SDS011;1840;48.892;15.312;2022-09-20T02:33:46;4.30;;;1.60;;
3647;SDS011;1840;48.892;15.312;2022-09-20T02:36:30;1.87;;;1.57;;
3647;SDS011;1840;48.892;15.312;2022-09-20T02:39:10;3.10;;;1.50;;
3647;SDS011;1840;48.892;15.312;2022-09-20T02:41:50;3.53;;;1.30;;
3647;SDS011;1840;48.892;15.312;2022-09-20T02:44:27;2.10;;;1.60;;
3647;SDS011;1840;48.892;15.312;2022-09-20T02:47:09;4.60;;;1.53;;
3647;SDS011;1840;48.892;15.312;2022-09-20T02:49:48;5.07;;;1.50;;
3647;SDS011;1840;48.892;15.312;2022-09-20T02:52:28;3.00;;;1.40;;
3647;SDS011;1840;48.892;15.312;2022-09-20T02:55:06;2.60;;;1.50;;
3647;SDS011;1840;48.892;15.312;2022-09-20T02:57:50;2.30;;;1.23;;
3647;SDS011;1840;48.892;15.312;2022-09-20T03:00:33;3.20;;;1.20;;
3647;SDS011;1840;48.892;15.312;2022-09-20T03:03:12;2.93;;;1.20;;
3647;SDS011;1840;48.892;15.312;2022-09-20T03:05:50;2.37;;;1.30;;
3647;SDS011;1840;48.892;15.312;2022-09-20T03:08:28;1.90;;;1.30;;
3647;SDS011;1840;48.892;15.312;2022-09-20T03:11:05;2.57;;;1.27;;
3647;SDS011;1840;48.892;15.312;2022-09-20T03:13:46;3.80;;;1.10;;
3647;SDS011;1840;48.892;15.312;2022-09-20T03:16:27;1.67;;;1.03;;
3647;SDS011;1840;48.892;15.312;2022-09-20T03:19:03;3.00;;;1.43;;
3647;SDS011;1840;48.892;15.312;2022-09-20T03:21:43;2.53;;;1.50;;
3647;SDS011;1840;48.892;15.312;2022-09-20T03:24:20;1.97;;;1.33;;
3647;SDS011;1840;48.892;15.312;2022-09-20T03:26:57;1.93;;;1.10;;
3647;SDS011;1840;48.892;15.312;2022-09-20T03:29:35;3.80;;;1.17;;
3647;SDS011;1840;48.892;15.312;2022-09-20T03:32:20;6.07;;;1.50;;
3647;SDS011;1840;48.892;15.312;2022-09-20T03:34:59;2.03;;;1.17;;
3647;SDS011;1840;48.892;15.312;2022-09-20T03:37:40;2.63;;;1.07;;
3647;SDS011;1840;48.892;15.312;2022-09-20T03:43:25;2.17;;;1.27;;
3647;SDS011;1840;48.892;15.312;2022-09-20T03:46:13;2.50;;;1.40;;
3647;SDS011;1840;48.892;15.312;2022-09-20T03:48:50;2.93;;;1.43;;
3647;SDS011;1840;48.892;15.312;2022-09-20T03:51:37;2.23;;;1.23;;
3647;SDS011;1840;48.892;15.312;2022-09-20T03:54:17;3.10;;;1.50;;
3647;SDS011;1840;48.892;15.312;2022-09-20T03:57:18;3.30;;;1.70;;
3647;SDS011;1840;48.892;15.312;2022-09-20T04:00:09;3.47;;;2.30;;
3647;SDS011;1840;48.892;15.312;2022-09-20T04:05:51;4.20;;;1.80;;
3647;SDS011;1840;48.892;15.312;2022-09-20T04:08:53;2.50;;;1.70;;
3647;SDS011;1840;48.892;15.312;2022-09-20T04:11:33;3.57;;;1.70;;
3647;SDS011;1840;48.892;15.312;2022-09-20T04:14:10;3.17;;;1.90;;
3647;SDS011;1840;48.892;15.312;2022-09-20T04:16:48;3.80;;;1.70;;
3647;SDS011;1840;48.892;15.312;2022-09-20T04:19:24;3.50;;;1.83;;
3647;SDS011;1840;48.892;15.312;2022-09-20T04:21:59;3.70;;;1.70;;
3647;SDS011;1840;48.892;15.312;2022-09-20T04:24:36;2.30;;;1.73;;
3647;SDS011;1840;48.892;15.312;2022-09-20T04:27:11;5.33;;;1.67;;
3647;SDS011;1840;48.892;15.312;2022-09-20T04:29:46;2.70;;;1.60;;
3647;SDS011;1840;48.892;15.312;2022-09-20T04:32:23;3.93;;;1.47;;
3647;SDS011;1840;48.892;15.312;2022-09-20T04:34:57;2.40;;;1.57;;
3647;SDS011;1840;48.892;15.312;2022-09-20T04:37:47;4.07;;;1.87;;
3647;SDS011;1840;48.892;15.312;2022-09-20T04:40:20;3.20;;;1.47;;
3647;SDS011;1840;48.892;15.312;2022-09-20T04:43:05;2.13;;;1.50;;
3647;SDS011;1840;48.892;15.312;2022-09-20T04:49:47;3.33;;;1.97;;
3647;SDS011;1840;48.892;15.312;2022-09-20T04:55:50;3.47;;;1.97;;
3647;SDS011;1840;48.892;15.312;2022-09-20T04:58:30;3.80;;;1.70;;
3647;SDS011;1840;48.892;15.312;2022-09-20T05:07:45;5.67;;;1.80;;
3647;SDS011;1840;48.892;15.312;2022-09-20T05:10:37;4.03;;;1.80;;
3647;SDS011;1840;48.892;15.312;2022-09-20T05:13:37;4.17;;;2.33;;
3647;SDS011;1840;48.892;15.312;2022-09-20T05:16:18;5.40;;;2.17;;
3647;SDS011;1840;48.892;15.312;2022-09-20T05:19:05;4.67;;;2.13;;
3647;SDS011;1840;48.892;15.312;2022-09-20T05:21:53;3.90;;;1.70;;
3647;SDS011;1840;48.892;15.312;2022-09-20T05:24:51;3.33;;;1.93;;
3647;SDS011;1840;48.892;15.312;2022-09-20T05:27:37;3.53;;;1.73;;
3647;SDS011;1840;48.892;15.312;2022-09-20T05:30:11;4.20;;;2.20;;
3647;SDS011;1840;48.892;15.312;2022-09-20T05:32:50;5.97;;;2.70;;
3647;SDS011;1840;48.892;15.312;2022-09-20T05:35:31;3.47;;;1.60;;
3647;SDS011;1840;48.892;15.312;2022-09-20T05:38:10;2.23;;;1.43;;
3647;SDS011;1840;48.892;15.312;2022-09-20T05:40:53;3.23;;;1.80;;
3647;SDS011;1840;48.892;15.312;2022-09-20T05:43:33;2.60;;;1.50;;
3647;SDS011;1840;48.892;15.312;2022-09-20T05:46:14;3.27;;;1.53;;
3647;SDS011;1840;48.892;15.312;2022-09-20T05:48:51;8.73;;;2.43;;
3647;SDS011;1840;48.892;15.312;2022-09-20T05:51:35;3.70;;;2.03;;
3647;SDS011;1840;48.892;15.312;2022-09-20T05:54:25;3.00;;;2.13;;
3647;SDS011;1840;48.892;15.312;2022-09-20T05:57:12;2.60;;;1.83;;
3647;SDS011;1840;48.892;15.312;2022-09-20T05:59:53;6.40;;;2.10;;
3647;SDS011;1840;48.892;15.312;2022-09-20T06:02:31;4.63;;;2.07;;
3647;SDS011;1840;48.892;15.312;2022-09-20T06:05:08;3.50;;;2.07;;
3647;SDS011;1840;48.892;15.312;2022-09-20T06:10:54;3.33;;;1.80;;
3647;SDS011;1840;48.892;15.312;2022-09-20T06:13:33;3.40;;;2.23;;
3647;SDS011;1840;48.892;15.312;2022-09-20T06:16:09;3.20;;;2.10;;
3647;SDS011;1840;48.892;15.312;2022-09-20T06:18:46;4.13;;;2.37;;
3647;SDS011;1840;48.892;15.312;2022-09-20T06:21:22;5.50;;;2.00;;
3647;SDS011;1840;48.892;15.312;2022-09-20T06:24:02;6.10;;;2.53;;
3647;SDS011;1840;48.892;15.312;2022-09-20T06:26:42;8.23;;;3.07;;
3647;SDS011;1840;48.892;15.312;2022-09-20T06:29:11;5.53;;;2.47;;
3647;SDS011;1840;48.892;15.312;2022-09-20T06:31:42;3.33;;;2.20;;
3647;SDS011;1840;48.892;15.312;2022-09-20T06:34:12;5.80;;;2.77;;
3647;SDS011;1840;48.892;15.312;2022-09-20T06:36:43;3.87;;;2.53;;
3647;SDS011;1840;48.892;15.312;2022-09-20T06:39:35;4.73;;;2.60;;
3647;SDS011;1840;48.892;15.312;2022-09-20T06:42:29;6.87;;;2.40;;
3647;SDS011;1840;48.892;15.312;2022-09-20T06:44:57;7.37;;;2.63;;
3647;SDS011;1840;48.892;15.312;2022-09-20T06:47:25;3.70;;;2.60;;
3647;SDS011;1840;48.892;15.312;2022-09-20T06:49:53;3.50;;;2.30;;
3647;SDS011;1840;48.892;15.312;2022-09-20T06:52:21;5.50;;;2.07;;
3647;SDS011;1840;48.892;15.312;2022-09-20T06:54:50;10.00;;;2.67;;
3647;SDS011;1840;48.892;15.312;2022-09-20T06:57:21;6.70;;;2.20;;
3647;SDS011;1840;48.892;15.312;2022-09-20T06:59:52;5.80;;;2.93;;
3647;SDS011;1840;48.892;15.312;2022-09-20T07:02:20;5.17;;;2.37;;
3647;SDS011;1840;48.892;15.312;2022-09-20T07:04:48;7.83;;;2.97;;
3647;SDS011;1840;48.892;15.312;2022-09-20T07:07:23;8.47;;;2.40;;
3647;SDS011;1840;48.892;15.312;2022-09-20T07:09:51;3.50;;;2.10;;
3647;SDS011;1840;48.892;15.312;2022-09-20T07:12:19;10.30;;;3.20;;
3647;SDS011;1840;48.892;15.312;2022-09-20T07:14:47;5.10;;;3.47;;
3647;SDS011;1840;48.892;15.312;2022-09-20T07:17:17;9.33;;;2.87;;
3647;SDS011;1840;48.892;15.312;2022-09-20T07:19:45;4.20;;;2.30;;
3647;SDS011;1840;48.892;15.312;2022-09-20T07:22:13;6.27;;;3.43;;
3647;SDS011;1840;48.892;15.312;2022-09-20T07:24:41;11.37;;;2.47;;
3647;SDS011;1840;48.892;15.312;2022-09-20T07:27:10;7.10;;;2.73;;
3647;SDS011;1840;48.892;15.312;2022-09-20T07:29:38;5.30;;;3.27;;
3647;SDS011;1840;48.892;15.312;2022-09-20T07:32:07;7.40;;;2.70;;
3647;SDS011;1840;48.892;15.312;2022-09-20T07:34:36;5.20;;;2.60;;
3647;SDS011;1840;48.892;15.312;2022-09-20T07:37:05;3.93;;;2.50;;
3647;SDS011;1840;48.892;15.312;2022-09-20T07:39:33;5.67;;;1.87;;
3647;SDS011;1840;48.892;15.312;2022-09-20T07:42:01;2.50;;;1.20;;
3647;SDS011;1840;48.892;15.312;2022-09-20T07:44:31;8.10;;;1.67;;
3647;SDS011;1840;48.892;15.312;2022-09-20T07:46:59;3.63;;;1.60;;
3647;SDS011;1840;48.892;15.312;2022-09-20T07:49:28;2.90;;;1.20;;
3647;SDS011;1840;48.892;15.312;2022-09-20T07:51:57;6.63;;;1.90;;
3647;SDS011;1840;48.892;15.312;2022-09-20T07:54:25;5.00;;;1.50;;
3647;SDS011;1840;48.892;15.312;2022-09-20T07:56:54;4.43;;;1.60;;
3647;SDS011;1840;48.892;15.312;2022-09-20T07:59:22;2.27;;;1.40;;
3647;SDS011;1840;48.892;15.312;2022-09-20T08:01:51;4.33;;;2.20;;
3647;SDS011;1840;48.892;15.312;2022-09-20T08:04:19;4.40;;;2.27;;
3647;SDS011;1840;48.892;15.312;2022-09-20T08:06:48;5.40;;;1.90;;
3647;SDS011;1840;48.892;15.312;2022-09-20T08:09:17;5.63;;;2.33;;
3647;SDS011;1840;48.892;15.312;2022-09-20T08:11:45;5.40;;;2.17;;
3647;SDS011;1840;48.892;15.312;2022-09-20T08:14:15;12.63;;;2.43;;
3647;SDS011;1840;48.892;15.312;2022-09-20T08:16:45;4.90;;;2.20;;
3647;SDS011;1840;48.892;15.312;2022-09-20T08:19:16;2.80;;;1.80;;
3647;SDS011;1840;48.892;15.312;2022-09-20T08:21:46;5.30;;;1.90;;
3647;SDS011;1840;48.892;15.312;2022-09-20T08:24:15;4.80;;;2.10;;
3647;SDS011;1840;48.892;15.312;2022-09-20T08:26:45;4.00;;;2.20;;
3647;SDS011;1840;48.892;15.312;2022-09-20T08:29:13;4.13;;;2.20;;
3647;SDS011;1840;48.892;15.312;2022-09-20T08:31:41;1.90;;;1.53;;
3647;SDS011;1840;48.892;15.312;2022-09-20T08:34:11;2.60;;;1.70;;
3647;SDS011;1840;48.892;15.312;2022-09-20T08:36:40;6.47;;;2.10;;
3647;SDS011;1840;48.892;15.312;2022-09-20T08:39:11;7.33;;;2.60;;
3647;SDS011;1840;48.892;15.312;2022-09-20T08:42:04;5.47;;;2.60;;
3647;SDS011;1840;48.892;15.312;2022-09-20T08:44:41;4.70;;;2.97;;
3647;SDS011;1840;48.892;15.312;2022-09-20T08:47:26;6.47;;;2.93;;
3647;SDS011;1840;48.892;15.312;2022-09-20T08:49:57;7.00;;;2.60;;
3647;SDS011;1840;48.892;15.312;2022-09-20T08:52:35;3.50;;;2.20;;
3647;SDS011;1840;48.892;15.312;2022-09-20T08:55:08;4.03;;;2.03;;
3647;SDS011;1840;48.892;15.312;2022-09-20T08:57:44;5.10;;;1.90;;
3647;SDS011;1840;48.892;15.312;2022-09-20T09:00:16;4.57;;;2.20;;
3647;SDS011;1840;48.892;15.312;2022-09-20T09:02:46;5.70;;;2.00;;
3647;SDS011;1840;48.892;15.312;2022-09-20T09:05:24;4.67;;;2.10;;
3647;SDS011;1840;48.892;15.312;2022-09-20T09:07:58;6.00;;;2.30;;
3647;SDS011;1840;48.892;15.312;2022-09-20T09:10:32;4.10;;;2.20;;
3647;SDS011;1840;48.892;15.312;2022-09-20T09:13:10;4.53;;;2.07;;
3647;SDS011;1840;48.892;15.312;2022-09-20T09:15:50;3.93;;;2.43;;
3647;SDS011;1840;48.892;15.312;2022-09-20T09:18:26;4.60;;;2.10;;
3647;SDS011;1840;48.892;15.312;2022-09-20T09:21:00;3.80;;;2.40;;
3647;SDS011;1840;48.892;15.312;2022-09-20T09:23:36;4.70;;;2.40;;
3647;SDS011;1840;48.892;15.312;2022-09-20T09:26:14;7.17;;;2.63;;
3647;SDS011;1840;48.892;15.312;2022-09-20T09:28:47;4.70;;;2.43;;
3647;SDS011;1840;48.892;15.312;2022-09-20T09:31:35;4.43;;;2.20;;
3647;SDS011;1840;48.892;15.312;2022-09-20T09:34:07;5.03;;;2.20;;
3647;SDS011;1840;48.892;15.312;2022-09-20T09:36:50;5.57;;;2.80;;
3647;SDS011;1840;48.892;15.312;2022-09-20T09:39:23;4.80;;;2.23;;
3647;SDS011;1840;48.892;15.312;2022-09-20T09:41:52;8.10;;;2.57;;
3647;SDS011;1840;48.892;15.312;2022-09-20T09:44:23;2.97;;;1.90;;
3647;SDS011;1840;48.892;15.312;2022-09-20T09:46:53;5.07;;;2.43;;
3647;SDS011;1840;48.892;15.312;2022-09-20T09:49:23;3.60;;;2.00;;
3647;SDS011;1840;48.892;15.312;2022-09-20T09:52:00;5.63;;;2.70;;
3647;SDS011;1840;48.892;15.312;2022-09-20T09:54:31;11.43;;;2.03;;
3647;SDS011;1840;48.892;15.312;2022-09-20T10:00:06;3.90;;;1.70;;
3647;SDS011;1840;48.892;15.312;2022-09-20T10:02:58;2.00;;;1.30;;
3647;SDS011;1840;48.892;15.312;2022-09-20T10:05:34;2.10;;;1.30;;
3647;SDS011;1840;48.892;15.312;2022-09-20T10:08:14;6.60;;;1.97;;
3647;SDS011;1840;48.892;15.312;2022-09-20T10:10:55;2.97;;;1.73;;
3647;SDS011;1840;48.892;15.312;2022-09-20T10:13:34;8.93;;;1.77;;
3647;SDS011;1840;48.892;15.312;2022-09-20T10:16:11;1.97;;;1.17;;
3647;SDS011;1840;48.892;15.312;2022-09-20T10:18:48;3.40;;;1.50;;
3647;SDS011;1840;48.892;15.312;2022-09-20T10:21:29;2.10;;;1.40;;
3647;SDS011;1840;48.892;15.312;2022-09-20T10:24:18;3.60;;;1.43;;
3647;SDS011;1840;48.892;15.312;2022-09-20T10:27:00;1.90;;;1.03;;
3647;SDS011;1840;48.892;15.312;2022-09-20T10:29:53;1.67;;;1.10;;
3647;SDS011;1840;48.892;15.312;2022-09-20T10:32:34;1.80;;;0.90;;
3647;SDS011;1840;48.892;15.312;2022-09-20T10:35:20;1.77;;;1.00;;
3647;SDS011;1840;48.892;15.312;2022-09-20T10:37:54;4.30;;;1.20;;
3647;SDS011;1840;48.892;15.312;2022-09-20T10:40:39;1.60;;;0.90;;
3647;SDS011;1840;48.892;15.312;2022-09-20T10:43:38;2.47;;;1.00;;
3647;SDS011;1840;48.892;15.312;2022-09-20T10:46:18;2.97;;;1.10;;
3647;SDS011;1840;48.892;15.312;2022-09-20T10:49:03;2.03;;;1.13;;
3647;SDS011;1840;48.892;15.312;2022-09-20T10:51:40;1.90;;;0.90;;
3647;SDS011;1840;48.892;15.312;2022-09-20T10:54:20;2.50;;;1.10;;
3647;SDS011;1840;48.892;15.312;2022-09-20T10:57:02;2.50;;;1.20;;
3647;SDS011;1840;48.892;15.312;2022-09-20T10:59:44;1.83;;;1.10;;
3647;SDS011;1840;48.892;15.312;2022-09-20T11:02:27;2.17;;;1.30;;
3647;SDS011;1840;48.892;15.312;2022-09-20T11:05:16;2.53;;;1.57;;
3647;SDS011;1840;48.892;15.312;2022-09-20T11:08:07;5.60;;;1.43;;
3647;SDS011;1840;48.892;15.312;2022-09-20T11:10:39;4.07;;;1.30;;
3647;SDS011;1840;48.892;15.312;2022-09-20T11:13:15;2.00;;;1.40;;
3647;SDS011;1840;48.892;15.312;2022-09-20T11:15:50;2.70;;;1.77;;
3647;SDS011;1840;48.892;15.312;2022-09-20T11:18:25;1.97;;;1.10;;
3647;SDS011;1840;48.892;15.312;2022-09-20T11:21:02;3.10;;;1.33;;
3647;SDS011;1840;48.892;15.312;2022-09-20T11:23:43;1.50;;;1.00;;
3647;SDS011;1840;48.892;15.312;2022-09-20T11:26:18;1.97;;;0.93;;
3647;SDS011;1840;48.892;15.312;2022-09-20T11:28:54;3.80;;;1.23;;
3647;SDS011;1840;48.892;15.312;2022-09-20T11:31:29;1.83;;;1.10;;
3647;SDS011;1840;48.892;15.312;2022-09-20T11:34:04;1.80;;;1.07;;
3647;SDS011;1840;48.892;15.312;2022-09-20T11:36:42;2.13;;;0.93;;
3647;SDS011;1840;48.892;15.312;2022-09-20T11:39:20;1.90;;;1.13;;
3647;SDS011;1840;48.892;15.312;2022-09-20T11:41:52;1.70;;;1.13;;
3647;SDS011;1840;48.892;15.312;2022-09-20T11:44:25;2.33;;;0.80;;
3647;SDS011;1840;48.892;15.312;2022-09-20T11:46:58;1.60;;;0.80;;
3647;SDS011;1840;48.892;15.312;2022-09-20T11:49:32;1.73;;;0.87;;
3647;SDS011;1840;48.892;15.312;2022-09-20T11:52:11;1.40;;;0.80;;
3647;SDS011;1840;48.892;15.312;2022-09-20T11:54:57;1.63;;;0.87;;
3647;SDS011;1840;48.892;15.312;2022-09-20T11:57:45;1.77;;;1.03;;
3647;SDS011;1840;48.892;15.312;2022-09-20T12:00:29;2.57;;;0.90;;
3647;SDS011;1840;48.892;15.312;2022-09-20T12:03:00;1.70;;;0.80;;
3647;SDS011;1840;48.892;15.312;2022-09-20T12:05:33;3.77;;;1.20;;
3647;SDS011;1840;48.892;15.312;2022-09-20T12:08:06;2.70;;;1.30;;
3647;SDS011;1840;48.892;15.312;2022-09-20T12:10:47;2.60;;;1.13;;
3647;SDS011;1840;48.892;15.312;2022-09-20T12:13:23;2.67;;;1.37;;
3647;SDS011;1840;48.892;15.312;2022-09-20T12:15:57;3.37;;;1.60;;
3647;SDS011;1840;48.892;15.312;2022-09-20T12:18:35;4.10;;;1.60;;
3647;SDS011;1840;48.892;15.312;2022-09-20T12:21:26;3.30;;;1.60;;
3647;SDS011;1840;48.892;15.312;2022-09-20T12:26:46;4.53;;;1.37;;
3647;SDS011;1840;48.892;15.312;2022-09-20T12:32:33;2.70;;;1.30;;
3647;SDS011;1840;48.892;15.312;2022-09-20T12:38:26;4.87;;;1.50;;
3647;SDS011;1840;48.892;15.312;2022-09-20T12:41:06;2.37;;;1.30;;
3647;SDS011;1840;48.892;15.312;2022-09-20T12:43:38;3.03;;;1.57;;
3647;SDS011;1840;48.892;15.312;2022-09-20T12:46:19;2.87;;;1.13;;
3647;SDS011;1840;48.892;15.312;2022-09-20T12:48:52;2.73;;;1.20;;
3647;SDS011;1840;48.892;15.312;2022-09-20T12:52:19;4.30;;;1.43;;
3647;SDS011;1840;48.892;15.312;2022-09-20T12:55:11;2.60;;;1.13;;
3647;SDS011;1840;48.892;15.312;2022-09-20T12:57:57;3.10;;;1.17;;
3647;SDS011;1840;48.892;15.312;2022-09-20T13:00:33;6.50;;;1.27;;
3647;SDS011;1840;48.892;15.312;2022-09-20T13:03:12;4.00;;;1.00;;
3647;SDS011;1840;48.892;15.312;2022-09-20T13:05:50;2.73;;;1.40;;
3647;SDS011;1840;48.892;15.312;2022-09-20T13:08:53;2.43;;;1.20;;
3647;SDS011;1840;48.892;15.312;2022-09-20T13:11:28;3.20;;;1.20;;
3647;SDS011;1840;48.892;15.312;2022-09-20T13:14:02;2.33;;;1.00;;
3647;SDS011;1840;48.892;15.312;2022-09-20T13:16:38;4.57;;;1.27;;
3647;SDS011;1840;48.892;15.312;2022-09-20T13:19:14;2.47;;;1.00;;
3647;SDS011;1840;48.892;15.312;2022-09-20T13:21:48;1.87;;;1.00;;
3647;SDS011;1840;48.892;15.312;2022-09-20T13:24:23;2.30;;;1.20;;
3647;SDS011;1840;48.892;15.312;2022-09-20T13:26:52;5.37;;;1.37;;
3647;SDS011;1840;48.892;15.312;2022-09-20T13:29:25;2.90;;;1.20;;
3647;SDS011;1840;48.892;15.312;2022-09-20T13:32:14;3.57;;;1.00;;
3647;SDS011;1840;48.892;15.312;2022-09-20T13:34:44;11.07;;;1.63;;
3647;SDS011;1840;48.892;15.312;2022-09-20T13:37:14;6.53;;;1.80;;
3647;SDS011;1840;48.892;15.312;2022-09-20T13:39:46;4.97;;;1.27;;
3647;SDS011;1840;48.892;15.312;2022-09-20T13:42:20;3.60;;;1.63;;
3647;SDS011;1840;48.892;15.312;2022-09-20T13:44:50;3.00;;;1.27;;
3647;SDS011;1840;48.892;15.312;2022-09-20T13:47:22;5.10;;;1.43;;
3647;SDS011;1840;48.892;15.312;2022-09-20T13:49:53;3.67;;;1.10;;
3647;SDS011;1840;48.892;15.312;2022-09-20T13:52:28;4.37;;;1.03;;
3647;SDS011;1840;48.892;15.312;2022-09-20T13:54:58;6.20;;;1.10;;
3647;SDS011;1840;48.892;15.312;2022-09-20T13:57:26;3.93;;;1.10;;
3647;SDS011;1840;48.892;15.312;2022-09-20T13:59:57;2.33;;;1.40;;
3647;SDS011;1840;48.892;15.312;2022-09-20T14:02:28;3.90;;;1.50;;
3647;SDS011;1840;48.892;15.312;2022-09-20T14:04:58;3.63;;;1.70;;
3647;SDS011;1840;48.892;15.312;2022-09-20T14:07:28;4.10;;;1.60;;
3647;SDS011;1840;48.892;15.312;2022-09-20T14:09:57;9.30;;;1.37;;
3647;SDS011;1840;48.892;15.312;2022-09-20T14:12:26;2.53;;;1.20;;
3647;SDS011;1840;48.892;15.312;2022-09-20T14:14:54;2.90;;;1.30;;
3647;SDS011;1840;48.892;15.312;2022-09-20T14:17:26;3.47;;;1.30;;
3647;SDS011;1840;48.892;15.312;2022-09-20T14:19:58;2.37;;;1.40;;
3647;SDS011;1840;48.892;15.312;2022-09-20T14:22:27;4.37;;;1.47;;
3647;SDS011;1840;48.892;15.312;2022-09-20T14:24:58;6.43;;;1.97;;
3647;SDS011;1840;48.892;15.312;2022-09-20T14:27:28;4.63;;;1.70;;
3647;SDS011;1840;48.892;15.312;2022-09-20T14:29:57;3.30;;;1.93;;
3647;SDS011;1840;48.892;15.312;2022-09-20T14:32:30;17.93;;;2.20;;
3647;SDS011;1840;48.892;15.312;2022-09-20T14:35:04;5.40;;;1.80;;
3647;SDS011;1840;48.892;15.312;2022-09-20T14:37:41;7.40;;;2.40;;
3647;SDS011;1840;48.892;15.312;2022-09-20T14:40:16;3.83;;;1.93;;
3647;SDS011;1840;48.892;15.312;2022-09-20T14:42:50;7.97;;;2.40;;
3647;SDS011;1840;48.892;15.312;2022-09-20T14:45:25;3.27;;;1.80;;
3647;SDS011;1840;48.892;15.312;2022-09-20T14:47:59;6.00;;;2.00;;
3647;SDS011;1840;48.892;15.312;2022-09-20T14:50:36;5.60;;;1.50;;
3647;SDS011;1840;48.892;15.312;2022-09-20T14:53:23;2.30;;;1.40;;
3647;SDS011;1840;48.892;15.312;2022-09-20T14:55:54;4.90;;;1.90;;
3647;SDS011;1840;48.892;15.312;2022-09-20T14:58:40;4.97;;;1.90;;
3647;SDS011;1840;48.892;15.312;2022-09-20T15:01:32;4.13;;;1.70;;
3647;SDS011;1840;48.892;15.312;2022-09-20T15:04:07;41.27;;;3.43;;
3647;SDS011;1840;48.892;15.312;2022-09-20T15:06:36;6.10;;;2.27;;
3647;SDS011;1840;48.892;15.312;2022-09-20T15:09:05;4.30;;;1.60;;
3647;SDS011;1840;48.892;15.312;2022-09-20T15:11:35;5.70;;;1.77;;
3647;SDS011;1840;48.892;15.312;2022-09-20T15:14:04;2.57;;;1.73;;
3647;SDS011;1840;48.892;15.312;2022-09-20T15:16:33;7.50;;;1.60;;
3647;SDS011;1840;48.892;15.312;2022-09-20T15:19:02;4.00;;;1.77;;
3647;SDS011;1840;48.892;15.312;2022-09-20T15:21:32;2.97;;;1.80;;
3647;SDS011;1840;48.892;15.312;2022-09-20T15:24:00;3.03;;;1.40;;
3647;SDS011;1840;48.892;15.312;2022-09-20T15:26:29;6.00;;;1.80;;
3647;SDS011;1840;48.892;15.312;2022-09-20T15:28:58;2.47;;;1.37;;
3647;SDS011;1840;48.892;15.312;2022-09-20T15:31:26;4.27;;;1.60;;
3647;SDS011;1840;48.892;15.312;2022-09-20T15:33:54;4.20;;;1.40;;
3647;SDS011;1840;48.892;15.312;2022-09-20T15:36:22;3.33;;;1.60;;
3647;SDS011;1840;48.892;15.312;2022-09-20T15:38:58;3.20;;;1.30;;
3647;SDS011;1840;48.892;15.312;2022-09-20T15:41:26;4.70;;;1.40;;
3647;SDS011;1840;48.892;15.312;2022-09-20T15:43:56;3.40;;;1.73;;
3647;SDS011;1840;48.892;15.312;2022-09-20T15:46:25;5.67;;;2.30;;
3647;SDS011;1840;48.892;15.312;2022-09-20T15:48:53;3.40;;;1.80;;
3647;SDS011;1840;48.892;15.312;2022-09-20T15:51:22;2.67;;;1.50;;
3647;SDS011;1840;48.892;15.312;2022-09-20T15:53:55;2.17;;;1.40;;
3647;SDS011;1840;48.892;15.312;2022-09-20T15:56:26;2.50;;;1.40;;
3647;SDS011;1840;48.892;15.312;2022-09-20T15:58:56;3.50;;;1.47;;
3647;SDS011;1840;48.892;15.312;2022-09-20T16:01:26;4.80;;;2.10;;
3647;SDS011;1840;48.892;15.312;2022-09-20T16:03:57;3.43;;;1.93;;
3647;SDS011;1840;48.892;15.312;2022-09-20T16:06:25;5.80;;;1.90;;
3647;SDS011;1840;48.892;15.312;2022-09-20T16:08:54;6.00;;;1.40;;
3647;SDS011;1840;48.892;15.312;2022-09-20T16:11:24;2.17;;;1.17;;
3647;SDS011;1840;48.892;15.312;2022-09-20T16:13:53;5.57;;;1.80;;
3647;SDS011;1840;48.892;15.312;2022-09-20T16:16:22;2.30;;;1.20;;
3647;SDS011;1840;48.892;15.312;2022-09-20T16:18:50;3.13;;;1.40;;
3647;SDS011;1840;48.892;15.312;2022-09-20T16:21:37;2.53;;;1.27;;
3647;SDS011;1840;48.892;15.312;2022-09-20T16:24:06;2.90;;;1.30;;
3647;SDS011;1840;48.892;15.312;2022-09-20T16:26:36;3.33;;;1.20;;
3647;SDS011;1840;48.892;15.312;2022-09-20T16:29:04;3.80;;;1.20;;
3647;SDS011;1840;48.892;15.312;2022-09-20T16:31:34;2.53;;;1.20;;
3647;SDS011;1840;48.892;15.312;2022-09-20T16:34:06;2.17;;;1.20;;
3647;SDS011;1840;48.892;15.312;2022-09-20T16:36:39;2.40;;;1.30;;
3647;SDS011;1840;48.892;15.312;2022-09-20T16:39:08;2.10;;;1.20;;